This demonstration page uses our WeatherBlox Daily Observations layout. Learn more.

38.89511, -77.03637

Hourly Observations for January 17, 2015

Temp ( °F °C ) Dew Point ( °F °C ) Humidity (%) Winds ( mph kmh ) Pressure ( in mb ) Visibility ( mi km ) Precip ( " mm )
12:52 am 00:52 Mostly Clear 34 1 16 -9 48 48 N 10 17 30.3 1026 10 16.09344 0 0
1:52 am 01:52 Partly Cloudy 34 1 16 -9 48 48 NNE 9 15 30.3 1026 10 16.09344 0 0
2:52 am 02:52 Mostly Clear 32 0 14 -10 47 47 NNE 8 13 30.33 1027 10 16.09344 0 0
3:52 am 03:52 Mostly Clear 30 -1 12 -11 47 47 NNE 10 17 30.33 1027 10 16.09344 0 0
4:52 am 04:52 Clear 30 -1 12 -11 47 47 NE 13 20 30.33 1027 10 16.09344 0 0
5:52 am 05:52 Clear 28 -2 10 -12 47 47 NE 8 13 30.36 1028 10 16.09344 0 0
6:52 am 06:52 Mostly Clear 28 -2 9 -13 43 43 NE 6 9 30.39 1029 10 16.09344 0 0
7:52 am 07:52 Mostly Sunny 28 -2 9 -13 43 43 Calm 30.42 1030 10 16.09344 0 0
8:52 am 08:52 Mostly Sunny 30 -1 10 -12 43 43 NE 3 6 30.42 1030 10 16.09344 0 0
9:52 am 09:52 Sunny 30 -1 10 -12 43 43 Calm 30.45 1031 10 16.09344 0 0
10:52 am 10:52 Mostly Sunny 34 1 12 -11 41 41 S 8 13 30.45 1031 10 16.09344 0 0
11:52 am 11:52 Mostly Sunny 36 2 16 -9 44 44 SSW 9 15 30.39 1029 10 16.09344 0 0
12:52 pm 12:52 Partly Cloudy 37 3 18 -8 45 45 S 7 11 30.36 1028 10 16.09344 0 0
1:52 pm 13:52 Partly Cloudy 39 4 18 -8 42 42 S 10 17 30.33 1027 10 16.09344 0 0
2:52 pm 14:52 Mostly Cloudy 39 4 19 -7 45 45 S 12 19 30.3 1026 10 16.09344 0 0
3:52 pm 15:52 Mostly Cloudy 39 4 19 -7 45 45 S 10 17 30.3 1026 10 16.09344 0 0
4:52 pm 16:52 Mostly Cloudy 37 3 19 -7 48 48 SSE 10 17 30.3 1026 10 16.09344 0 0
5:52 pm 17:52 Mostly Cloudy 36 2 18 -8 48 48 SSE 9 15 30.27 1025 10 16.09344 0 0
6:52 pm 18:52 Mostly Cloudy 36 2 18 -8 48 48 SSE 8 13 30.27 1025 10 16.09344 0 0
7:52 pm 19:52 Mostly Cloudy 36 2 21 -6 56 56 SSE 10 17 30.27 1025 10 16.09344 0 0
8:52 pm 20:52 Mostly Cloudy 36 2 23 -5 60 60 SSE 8 13 30.24 1024 10 16.09344 0 0
9:52 pm 21:52 Mostly Cloudy 36 2 25 -4 65 65 S 10 17 30.24 1024 10 16.09344 0 0
10:52 pm 22:52 Mostly Clear 36 2 27 -3 70 70 S 15 24 30.21 1023 10 16.09344 0 0
11:52 pm 23:52 Mostly Clear 36 2 27 -3 70 70 S 18 30 30.18 1022 10 16.09344 0 0

Powered by AerisWeather